sensor_id;sensor_type;location;lat;lon;timestamp;temperature;humidity
15143;DHT22;7672;50.834;6.286;2022-08-19T00:02:02;21.40;99.90
15143;DHT22;7672;50.834;6.286;2022-08-19T00:04:32;21.60;99.90
15143;DHT22;7672;50.834;6.286;2022-08-19T00:07:07;21.20;99.90
15143;DHT22;7672;50.834;6.286;2022-08-19T00:09:34;21.10;99.90
15143;DHT22;7672;50.834;6.286;2022-08-19T00:12:01;21.40;99.90
15143;DHT22;7672;50.834;6.286;2022-08-19T00:14:29;21.10;99.90
15143;DHT22;7672;50.834;6.286;2022-08-19T00:16:58;21.10;99.90
15143;DHT22;7672;50.834;6.286;2022-08-19T00:19:25;21.30;99.90
15143;DHT22;7672;50.834;6.286;2022-08-19T00:21:52;21.20;99.90
15143;DHT22;7672;50.834;6.286;2022-08-19T00:24:20;21.20;99.90
15143;DHT22;7672;50.834;6.286;2022-08-19T00:26:47;21.40;99.90
15143;DHT22;7672;50.834;6.286;2022-08-19T00:29:17;21.00;99.90
15143;DHT22;7672;50.834;6.286;2022-08-19T00:31:46;21.00;99.90
15143;DHT22;7672;50.834;6.286;2022-08-19T00:34:16;21.10;99.90
15143;DHT22;7672;50.834;6.286;2022-08-19T00:36:43;20.90;99.90
15143;DHT22;7672;50.834;6.286;2022-08-19T00:39:11;21.10;99.90
15143;DHT22;7672;50.834;6.286;2022-08-19T00:41:39;20.90;99.90
15143;DHT22;7672;50.834;6.286;2022-08-19T00:46:38;20.80;99.90
15143;DHT22;7672;50.834;6.286;2022-08-19T00:49:16;20.90;99.90
15143;DHT22;7672;50.834;6.286;2022-08-19T00:52:08;20.70;99.90
15143;DHT22;7672;50.834;6.286;2022-08-19T00:54:39;20.70;99.90
15143;DHT22;7672;50.834;6.286;2022-08-19T00:57:09;20.60;99.90
15143;DHT22;7672;50.834;6.286;2022-08-19T00:59:43;20.60;99.90
15143;DHT22;7672;50.834;6.286;2022-08-19T01:02:28;20.60;99.90
15143;DHT22;7672;50.834;6.286;2022-08-19T01:04:56;20.50;99.90
15143;DHT22;7672;50.834;6.286;2022-08-19T01:07:23;20.50;99.90
15143;DHT22;7672;50.834;6.286;2022-08-19T01:09:51;20.40;99.90
15143;DHT22;7672;50.834;6.286;2022-08-19T01:12:18;20.40;99.90
15143;DHT22;7672;50.834;6.286;2022-08-19T01:14:46;20.40;99.90
15143;DHT22;7672;50.834;6.286;2022-08-19T01:17:15;20.50;99.90
15143;DHT22;7672;50.834;6.286;2022-08-19T01:19:43;20.70;99.90
15143;DHT22;7672;50.834;6.286;2022-08-19T01:22:31;20.50;99.90
15143;DHT22;7672;50.834;6.286;2022-08-19T01:25:06;20.30;99.90
15143;DHT22;7672;50.834;6.286;2022-08-19T01:27:42;20.30;99.90
15143;DHT22;7672;50.834;6.286;2022-08-19T01:30:17;20.40;99.90
15143;DHT22;7672;50.834;6.286;2022-08-19T01:32:49;20.30;99.90
15143;DHT22;7672;50.834;6.286;2022-08-19T01:35:17;20.50;99.90
15143;DHT22;7672;50.834;6.286;2022-08-19T01:37:54;20.30;99.90
15143;DHT22;7672;50.834;6.286;2022-08-19T01:40:29;20.20;99.90
15143;DHT22;7672;50.834;6.286;2022-08-19T01:42:57;20.50;99.90
15143;DHT22;7672;50.834;6.286;2022-08-19T01:45:26;20.50;99.90
15143;DHT22;7672;50.834;6.286;2022-08-19T01:47:55;20.20;99.90
15143;DHT22;7672;50.834;6.286;2022-08-19T01:50:31;20.30;99.90
15143;DHT22;7672;50.834;6.286;2022-08-19T01:53:01;20.20;99.90
15143;DHT22;7672;50.834;6.286;2022-08-19T01:55:35;20.20;99.90
15143;DHT22;7672;50.834;6.286;2022-08-19T01:58:12;20.20;99.90
15143;DHT22;7672;50.834;6.286;2022-08-19T02:00:43;20.20;99.90
15143;DHT22;7672;50.834;6.286;2022-08-19T02:03:12;20.20;99.90
15143;DHT22;7672;50.834;6.286;2022-08-19T02:05:41;20.10;99.90
15143;DHT22;7672;50.834;6.286;2022-08-19T02:08:11;20.10;99.90
15143;DHT22;7672;50.834;6.286;2022-08-19T02:10:40;20.20;99.90
15143;DHT22;7672;50.834;6.286;2022-08-19T02:13:10;20.10;99.90
15143;DHT22;7672;50.834;6.286;2022-08-19T02:15:38;20.10;99.90
15143;DHT22;7672;50.834;6.286;2022-08-19T02:18:05;19.90;99.90
15143;DHT22;7672;50.834;6.286;2022-08-19T02:20:32;20.10;99.90
15143;DHT22;7672;50.834;6.286;2022-08-19T02:23:00;20.10;99.90
15143;DHT22;7672;50.834;6.286;2022-08-19T02:25:27;20.10;99.90
15143;DHT22;7672;50.834;6.286;2022-08-19T02:27:54;20.50;99.90
15143;DHT22;7672;50.834;6.286;2022-08-19T02:30:21;20.10;99.90
15143;DHT22;7672;50.834;6.286;2022-08-19T02:32:48;20.10;99.90
15143;DHT22;7672;50.834;6.286;2022-08-19T02:35:15;20.20;99.90
15143;DHT22;7672;50.834;6.286;2022-08-19T02:37:43;20.20;99.90
15143;DHT22;7672;50.834;6.286;2022-08-19T02:40:31;20.00;99.90
15143;DHT22;7672;50.834;6.286;2022-08-19T02:43:04;20.10;99.90
15143;DHT22;7672;50.834;6.286;2022-08-19T02:45:38;20.20;99.90
15143;DHT22;7672;50.834;6.286;2022-08-19T02:48:07;20.20;99.90
15143;DHT22;7672;50.834;6.286;2022-08-19T02:50:47;20.20;99.90
15143;DHT22;7672;50.834;6.286;2022-08-19T02:53:19;20.30;99.90
15143;DHT22;7672;50.834;6.286;2022-08-19T02:55:46;20.20;99.90
15143;DHT22;7672;50.834;6.286;2022-08-19T02:58:14;20.50;99.90
15143;DHT22;7672;50.834;6.286;2022-08-19T03:00:47;20.30;99.90
15143;DHT22;7672;50.834;6.286;2022-08-19T03:03:17;20.30;99.90
15143;DHT22;7672;50.834;6.286;2022-08-19T03:05:45;20.30;99.90
15143;DHT22;7672;50.834;6.286;2022-08-19T03:08:23;20.50;99.90
15143;DHT22;7672;50.834;6.286;2022-08-19T03:10:52;20.30;99.90
15143;DHT22;7672;50.834;6.286;2022-08-19T03:13:19;20.30;99.90
15143;DHT22;7672;50.834;6.286;2022-08-19T03:15:48;20.30;99.90
15143;DHT22;7672;50.834;6.286;2022-08-19T03:18:16;20.30;99.90
15143;DHT22;7672;50.834;6.286;2022-08-19T03:20:45;20.30;99.90
15143;DHT22;7672;50.834;6.286;2022-08-19T03:23:15;20.40;99.90
15143;DHT22;7672;50.834;6.286;2022-08-19T03:25:46;20.20;99.90
15143;DHT22;7672;50.834;6.286;2022-08-19T03:28:33;20.40;99.90
15143;DHT22;7672;50.834;6.286;2022-08-19T03:31:05;20.30;99.90
15143;DHT22;7672;50.834;6.286;2022-08-19T03:33:55;20.20;99.90
15143;DHT22;7672;50.834;6.286;2022-08-19T03:36:24;20.20;99.90
15143;DHT22;7672;50.834;6.286;2022-08-19T03:38:57;20.10;99.90
15143;DHT22;7672;50.834;6.286;2022-08-19T03:41:47;20.10;99.90
15143;DHT22;7672;50.834;6.286;2022-08-19T03:44:36;20.10;99.90
15143;DHT22;7672;50.834;6.286;2022-08-19T03:47:05;20.30;99.90
15143;DHT22;7672;50.834;6.286;2022-08-19T03:49:32;20.10;99.90
15143;DHT22;7672;50.834;6.286;2022-08-19T03:52:02;20.10;99.90
15143;DHT22;7672;50.834;6.286;2022-08-19T03:54:33;20.10;99.90
15143;DHT22;7672;50.834;6.286;2022-08-19T03:57:00;19.90;99.90
15143;DHT22;7672;50.834;6.286;2022-08-19T03:59:32;20.10;99.90
15143;DHT22;7672;50.834;6.286;2022-08-19T04:02:05;20.10;99.90
15143;DHT22;7672;50.834;6.286;2022-08-19T04:04:40;20.10;99.90
15143;DHT22;7672;50.834;6.286;2022-08-19T04:07:10;20.20;99.90
15143;DHT22;7672;50.834;6.286;2022-08-19T04:09:41;20.00;99.90
15143;DHT22;7672;50.834;6.286;2022-08-19T04:12:08;20.30;99.90
15143;DHT22;7672;50.834;6.286;2022-08-19T04:14:35;20.30;99.90
15143;DHT22;7672;50.834;6.286;2022-08-19T04:17:03;20.00;99.90
15143;DHT22;7672;50.834;6.286;2022-08-19T04:19:35;20.00;99.90
15143;DHT22;7672;50.834;6.286;2022-08-19T04:22:03;20.00;99.90
15143;DHT22;7672;50.834;6.286;2022-08-19T04:24:30;20.00;99.90
15143;DHT22;7672;50.834;6.286;2022-08-19T04:27:02;20.00;99.90
15143;DHT22;7672;50.834;6.286;2022-08-19T04:29:29;20.00;99.90
15143;DHT22;7672;50.834;6.286;2022-08-19T04:31:57;20.00;99.90
15143;DHT22;7672;50.834;6.286;2022-08-19T04:34:27;20.00;99.90
15143;DHT22;7672;50.834;6.286;2022-08-19T04:36:57;20.00;99.90
15143;DHT22;7672;50.834;6.286;2022-08-19T04:39:28;20.00;99.90
15143;DHT22;7672;50.834;6.286;2022-08-19T04:42:18;20.00;99.90
15143;DHT22;7672;50.834;6.286;2022-08-19T04:45:05;20.20;99.90
15143;DHT22;7672;50.834;6.286;2022-08-19T04:47:39;20.10;99.90
15143;DHT22;7672;50.834;6.286;2022-08-19T04:50:23;20.10;99.90
15143;DHT22;7672;50.834;6.286;2022-08-19T04:52:51;20.20;99.90
15143;DHT22;7672;50.834;6.286;2022-08-19T04:55:20;20.10;99.90
15143;DHT22;7672;50.834;6.286;2022-08-19T04:57:46;20.10;99.90
15143;DHT22;7672;50.834;6.286;2022-08-19T05:00:14;20.10;99.90
15143;DHT22;7672;50.834;6.286;2022-08-19T05:02:41;20.10;99.90
15143;DHT22;7672;50.834;6.286;2022-08-19T05:05:08;20.10;99.90
15143;DHT22;7672;50.834;6.286;2022-08-19T05:07:36;20.50;99.90
15143;DHT22;7672;50.834;6.286;2022-08-19T05:10:05;20.30;99.90
15143;DHT22;7672;50.834;6.286;2022-08-19T05:12:33;20.20;99.90
15143;DHT22;7672;50.834;6.286;2022-08-19T05:15:01;20.20;99.90
15143;DHT22;7672;50.834;6.286;2022-08-19T05:17:29;20.20;99.90
15143;DHT22;7672;50.834;6.286;2022-08-19T05:20:07;20.20;99.90
15143;DHT22;7672;50.834;6.286;2022-08-19T05:22:53;20.30;99.90
15143;DHT22;7672;50.834;6.286;2022-08-19T05:25:22;20.30;99.90
15143;DHT22;7672;50.834;6.286;2022-08-19T05:27:49;20.30;99.90
15143;DHT22;7672;50.834;6.286;2022-08-19T05:30:17;20.30;99.90
15143;DHT22;7672;50.834;6.286;2022-08-19T05:33:04;20.40;99.90
15143;DHT22;7672;50.834;6.286;2022-08-19T05:35:34;20.40;99.90
15143;DHT22;7672;50.834;6.286;2022-08-19T05:38:03;20.50;99.90
15143;DHT22;7672;50.834;6.286;2022-08-19T05:40:30;20.60;99.90
15143;DHT22;7672;50.834;6.286;2022-08-19T05:42:57;20.60;99.90
15143;DHT22;7672;50.834;6.286;2022-08-19T05:45:23;20.70;99.90
15143;DHT22;7672;50.834;6.286;2022-08-19T05:47:51;20.70;99.90
15143;DHT22;7672;50.834;6.286;2022-08-19T05:50:18;21.20;99.90
15143;DHT22;7672;50.834;6.286;2022-08-19T05:52:44;20.90;99.90
15143;DHT22;7672;50.834;6.286;2022-08-19T05:55:16;20.90;99.90
15143;DHT22;7672;50.834;6.286;2022-08-19T05:57:43;21.00;99.90
15143;DHT22;7672;50.834;6.286;2022-08-19T06:00:10;21.00;99.90
15143;DHT22;7672;50.834;6.286;2022-08-19T06:02:39;21.10;99.90
15143;DHT22;7672;50.834;6.286;2022-08-19T06:05:09;21.10;99.90
15143;DHT22;7672;50.834;6.286;2022-08-19T06:07:37;21.20;99.90
15143;DHT22;7672;50.834;6.286;2022-08-19T06:10:07;21.40;99.90
15143;DHT22;7672;50.834;6.286;2022-08-19T06:12:36;21.40;99.90
15143;DHT22;7672;50.834;6.286;2022-08-19T06:15:13;21.50;99.90
15143;DHT22;7672;50.834;6.286;2022-08-19T06:17:41;21.50;99.90
15143;DHT22;7672;50.834;6.286;2022-08-19T06:20:13;21.60;99.90
15143;DHT22;7672;50.834;6.286;2022-08-19T06:22:43;22.00;99.90
15143;DHT22;7672;50.834;6.286;2022-08-19T06:25:13;21.90;99.90
15143;DHT22;7672;50.834;6.286;2022-08-19T06:27:41;22.00;99.90
15143;DHT22;7672;50.834;6.286;2022-08-19T06:30:29;22.10;99.90
15143;DHT22;7672;50.834;6.286;2022-08-19T06:32:56;22.10;99.90
15143;DHT22;7672;50.834;6.286;2022-08-19T06:35:23;22.60;99.90
15143;DHT22;7672;50.834;6.286;2022-08-19T06:37:53;22.50;99.90
15143;DHT22;7672;50.834;6.286;2022-08-19T06:40:21;22.70;99.90
15143;DHT22;7672;50.834;6.286;2022-08-19T06:42:48;22.70;99.90
15143;DHT22;7672;50.834;6.286;2022-08-19T06:45:21;22.90;99.90
15143;DHT22;7672;50.834;6.286;2022-08-19T06:48:00;23.00;99.90
15143;DHT22;7672;50.834;6.286;2022-08-19T06:50:27;23.10;99.90
15143;DHT22;7672;50.834;6.286;2022-08-19T06:52:54;23.20;99.90
15143;DHT22;7672;50.834;6.286;2022-08-19T06:55:21;23.20;99.90
15143;DHT22;7672;50.834;6.286;2022-08-19T06:57:49;23.40;99.90
15143;DHT22;7672;50.834;6.286;2022-08-19T07:00:20;23.50;99.90
15143;DHT22;7672;50.834;6.286;2022-08-19T07:02:47;23.50;99.90
15143;DHT22;7672;50.834;6.286;2022-08-19T07:05:24;23.60;99.90
15143;DHT22;7672;50.834;6.286;2022-08-19T07:07:51;23.80;99.90
15143;DHT22;7672;50.834;6.286;2022-08-19T07:10:23;24.00;99.90
15143;DHT22;7672;50.834;6.286;2022-08-19T07:12:51;24.50;99.90
15143;DHT22;7672;50.834;6.286;2022-08-19T07:15:18;24.40;99.90
15143;DHT22;7672;50.834;6.286;2022-08-19T07:17:47;24.50;99.90
15143;DHT22;7672;50.834;6.286;2022-08-19T07:20:20;24.80;99.90
15143;DHT22;7672;50.834;6.286;2022-08-19T07:22:54;25.00;99.90
15143;DHT22;7672;50.834;6.286;2022-08-19T07:25:21;25.30;99.90
15143;DHT22;7672;50.834;6.286;2022-08-19T07:27:58;25.50;99.90
15143;DHT22;7672;50.834;6.286;2022-08-19T07:30:27;25.90;99.90
15143;DHT22;7672;50.834;6.286;2022-08-19T07:32:54;26.10;99.90
15143;DHT22;7672;50.834;6.286;2022-08-19T07:35:23;26.40;99.90
15143;DHT22;7672;50.834;6.286;2022-08-19T07:37:51;26.60;99.90
15143;DHT22;7672;50.834;6.286;2022-08-19T07:40:21;26.80;99.90
15143;DHT22;7672;50.834;6.286;2022-08-19T07:42:51;27.10;99.90
15143;DHT22;7672;50.834;6.286;2022-08-19T07:45:19;27.50;99.90
15143;DHT22;7672;50.834;6.286;2022-08-19T07:47:51;27.90;99.90
15143;DHT22;7672;50.834;6.286;2022-08-19T07:50:20;28.00;99.90
15143;DHT22;7672;50.834;6.286;2022-08-19T07:52:48;28.80;99.90
15143;DHT22;7672;50.834;6.286;2022-08-19T07:55:19;29.30;99.90
15143;DHT22;7672;50.834;6.286;2022-08-19T07:58:08;29.90;99.90
15143;DHT22;7672;50.834;6.286;2022-08-19T08:00:39;30.40;99.90
15143;DHT22;7672;50.834;6.286;2022-08-19T08:03:09;30.80;99.90
15143;DHT22;7672;50.834;6.286;2022-08-19T08:05:36;31.20;99.90
15143;DHT22;7672;50.834;6.286;2022-08-19T08:08:22;31.50;99.90
15143;DHT22;7672;50.834;6.286;2022-08-19T08:11:18;31.70;99.90
15143;DHT22;7672;50.834;6.286;2022-08-19T08:13:47;31.80;99.90
15143;DHT22;7672;50.834;6.286;2022-08-19T08:16:37;31.90;99.90
15143;DHT22;7672;50.834;6.286;2022-08-19T08:19:13;32.10;99.90
15143;DHT22;7672;50.834;6.286;2022-08-19T08:21:55;32.20;99.90
15143;DHT22;7672;50.834;6.286;2022-08-19T08:24:26;32.40;99.90
15143;DHT22;7672;50.834;6.286;2022-08-19T08:26:58;32.50;99.90
15143;DHT22;7672;50.834;6.286;2022-08-19T08:29:30;32.60;99.90
15143;DHT22;7672;50.834;6.286;2022-08-19T08:32:00;32.70;99.90
15143;DHT22;7672;50.834;6.286;2022-08-19T08:34:41;32.70;99.90
15143;DHT22;7672;50.834;6.286;2022-08-19T08:37:09;32.40;99.90
15143;DHT22;7672;50.834;6.286;2022-08-19T08:39:42;32.60;99.90
15143;DHT22;7672;50.834;6.286;2022-08-19T08:42:23;32.50;99.90
15143;DHT22;7672;50.834;6.286;2022-08-19T08:45:03;32.50;99.90
15143;DHT22;7672;50.834;6.286;2022-08-19T08:47:40;32.50;99.90
15143;DHT22;7672;50.834;6.286;2022-08-19T08:50:29;32.60;99.90
15143;DHT22;7672;50.834;6.286;2022-08-19T08:53:03;32.80;99.90
15143;DHT22;7672;50.834;6.286;2022-08-19T08:55:34;32.90;99.90
15143;DHT22;7672;50.834;6.286;2022-08-19T08:58:20;33.20;99.90
15143;DHT22;7672;50.834;6.286;2022-08-19T09:00:57;33.50;99.90
15143;DHT22;7672;50.834;6.286;2022-08-19T09:03:27;33.80;99.90
15143;DHT22;7672;50.834;6.286;2022-08-19T09:06:02;34.10;99.90
15143;DHT22;7672;50.834;6.286;2022-08-19T09:11:18;34.70;99.90
15143;DHT22;7672;50.834;6.286;2022-08-19T09:17:24;35.30;99.20
15143;DHT22;7672;50.834;6.286;2022-08-19T09:22:38;35.80;97.60
15143;DHT22;7672;50.834;6.286;2022-08-19T09:25:14;35.90;96.70
15143;DHT22;7672;50.834;6.286;2022-08-19T09:27:51;36.00;95.60
15143;DHT22;7672;50.834;6.286;2022-08-19T09:30:23;36.00;95.80
15143;DHT22;7672;50.834;6.286;2022-08-19T09:32:57;36.00;95.30
15143;DHT22;7672;50.834;6.286;2022-08-19T09:35:27;36.00;95.10
15143;DHT22;7672;50.834;6.286;2022-08-19T09:38:15;36.00;94.80
15143;DHT22;7672;50.834;6.286;2022-08-19T09:40:43;36.00;94.80
15143;DHT22;7672;50.834;6.286;2022-08-19T09:43:10;35.90;94.30
15143;DHT22;7672;50.834;6.286;2022-08-19T09:45:42;36.00;93.90
15143;DHT22;7672;50.834;6.286;2022-08-19T09:48:12;35.90;93.40
15143;DHT22;7672;50.834;6.286;2022-08-19T09:50:44;35.90;93.90
15143;DHT22;7672;50.834;6.286;2022-08-19T09:53:18;35.90;93.50
15143;DHT22;7672;50.834;6.286;2022-08-19T09:55:46;35.80;93.30
15143;DHT22;7672;50.834;6.286;2022-08-19T09:58:13;35.80;93.20
15143;DHT22;7672;50.834;6.286;2022-08-19T10:00:40;35.80;92.90
15143;DHT22;7672;50.834;6.286;2022-08-19T10:03:07;35.80;92.70
15143;DHT22;7672;50.834;6.286;2022-08-19T10:05:36;35.90;92.50
15143;DHT22;7672;50.834;6.286;2022-08-19T10:08:23;35.90;92.50
15143;DHT22;7672;50.834;6.286;2022-08-19T10:10:53;35.90;92.20
15143;DHT22;7672;50.834;6.286;2022-08-19T10:13:23;35.90;92.10
15143;DHT22;7672;50.834;6.286;2022-08-19T10:15:54;36.00;92.00
15143;DHT22;7672;50.834;6.286;2022-08-19T10:18:30;36.10;92.10
15143;DHT22;7672;50.834;6.286;2022-08-19T10:21:14;36.20;91.60
15143;DHT22;7672;50.834;6.286;2022-08-19T10:23:47;36.40;91.90
15143;DHT22;7672;50.834;6.286;2022-08-19T10:26:25;36.60;91.10
15143;DHT22;7672;50.834;6.286;2022-08-19T10:29:00;36.70;90.90
15143;DHT22;7672;50.834;6.286;2022-08-19T10:31:31;36.80;91.10
15143;DHT22;7672;50.834;6.286;2022-08-19T10:34:20;37.00;90.90
15143;DHT22;7672;50.834;6.286;2022-08-19T10:36:54;37.30;90.30
15143;DHT22;7672;50.834;6.286;2022-08-19T10:39:30;37.50;90.40
15143;DHT22;7672;50.834;6.286;2022-08-19T10:42:12;37.70;89.60
15143;DHT22;7672;50.834;6.286;2022-08-19T10:44:43;37.90;89.60
15143;DHT22;7672;50.834;6.286;2022-08-19T10:47:17;38.00;87.70
15143;DHT22;7672;50.834;6.286;2022-08-19T10:49:55;38.20;87.60
15143;DHT22;7672;50.834;6.286;2022-08-19T10:52:47;38.30;85.10
15143;DHT22;7672;50.834;6.286;2022-08-19T10:55:21;38.10;84.30
15143;DHT22;7672;50.834;6.286;2022-08-19T10:58:11;38.40;84.30
15143;DHT22;7672;50.834;6.286;2022-08-19T11:00:56;38.50;83.00
15143;DHT22;7672;50.834;6.286;2022-08-19T11:03:25;38.60;83.70
15143;DHT22;7672;50.834;6.286;2022-08-19T11:06:00;38.70;81.50
15143;DHT22;7672;50.834;6.286;2022-08-19T11:08:32;38.70;80.10
15143;DHT22;7672;50.834;6.286;2022-08-19T11:11:03;38.80;79.90
15143;DHT22;7672;50.834;6.286;2022-08-19T11:13:34;38.70;79.70
15143;DHT22;7672;50.834;6.286;2022-08-19T11:16:12;38.50;80.20
15143;DHT22;7672;50.834;6.286;2022-08-19T11:18:46;38.50;79.10
15143;DHT22;7672;50.834;6.286;2022-08-19T11:21:32;38.50;78.60
15143;DHT22;7672;50.834;6.286;2022-08-19T11:24:11;38.50;79.30
15143;DHT22;7672;50.834;6.286;2022-08-19T11:26:44;38.60;79.20
15143;DHT22;7672;50.834;6.286;2022-08-19T11:29:13;38.80;78.70
15143;DHT22;7672;50.834;6.286;2022-08-19T11:31:44;38.80;77.70
15143;DHT22;7672;50.834;6.286;2022-08-19T11:34:17;38.90;76.40
15143;DHT22;7672;50.834;6.286;2022-08-19T11:36:47;38.90;76.10
15143;DHT22;7672;50.834;6.286;2022-08-19T11:39:21;39.00;76.40
15143;DHT22;7672;50.834;6.286;2022-08-19T11:41:54;38.80;75.80
15143;DHT22;7672;50.834;6.286;2022-08-19T11:44:22;38.70;76.40
15143;DHT22;7672;50.834;6.286;2022-08-19T11:46:51;38.70;76.80
15143;DHT22;7672;50.834;6.286;2022-08-19T11:49:19;38.60;77.30
15143;DHT22;7672;50.834;6.286;2022-08-19T11:51:48;38.60;76.60
15143;DHT22;7672;50.834;6.286;2022-08-19T11:54:19;38.60;76.50
15143;DHT22;7672;50.834;6.286;2022-08-19T11:56:47;38.50;76.40
15143;DHT22;7672;50.834;6.286;2022-08-19T11:59:16;38.50;76.30
15143;DHT22;7672;50.834;6.286;2022-08-19T12:01:43;38.40;75.90
15143;DHT22;7672;50.834;6.286;2022-08-19T12:04:12;38.30;75.70
15143;DHT22;7672;50.834;6.286;2022-08-19T12:06:40;38.20;75.80
15143;DHT22;7672;50.834;6.286;2022-08-19T12:09:09;38.00;76.40
15143;DHT22;7672;50.834;6.286;2022-08-19T12:11:42;37.90;76.10
15143;DHT22;7672;50.834;6.286;2022-08-19T12:14:12;37.80;76.80
15143;DHT22;7672;50.834;6.286;2022-08-19T12:16:44;37.70;76.30
15143;DHT22;7672;50.834;6.286;2022-08-19T12:19:17;37.60;76.70
15143;DHT22;7672;50.834;6.286;2022-08-19T12:21:48;37.50;77.20
15143;DHT22;7672;50.834;6.286;2022-08-19T12:24:16;37.40;77.40
15143;DHT22;7672;50.834;6.286;2022-08-19T12:26:50;37.30;77.80
15143;DHT22;7672;50.834;6.286;2022-08-19T12:29:20;37.20;77.20
15143;DHT22;7672;50.834;6.286;2022-08-19T12:31:50;37.10;77.10
15143;DHT22;7672;50.834;6.286;2022-08-19T12:34:17;37.10;77.00
15143;DHT22;7672;50.834;6.286;2022-08-19T12:36:46;36.90;76.90
15143;DHT22;7672;50.834;6.286;2022-08-19T12:39:16;36.90;77.30
15143;DHT22;7672;50.834;6.286;2022-08-19T12:41:45;36.60;76.50
15143;DHT22;7672;50.834;6.286;2022-08-19T12:44:21;36.50;76.60
15143;DHT22;7672;50.834;6.286;2022-08-19T12:46:57;36.40;76.90
15143;DHT22;7672;50.834;6.286;2022-08-19T12:49:28;36.20;77.00
15143;DHT22;7672;50.834;6.286;2022-08-19T12:52:15;36.10;76.40
15143;DHT22;7672;50.834;6.286;2022-08-19T12:54:48;36.00;77.20
15143;DHT22;7672;50.834;6.286;2022-08-19T12:57:24;35.90;77.60
15143;DHT22;7672;50.834;6.286;2022-08-19T13:02:36;35.70;76.20
15143;DHT22;7672;50.834;6.286;2022-08-19T13:05:06;35.70;76.50
15143;DHT22;7672;50.834;6.286;2022-08-19T13:07:36;35.70;75.00
15143;DHT22;7672;50.834;6.286;2022-08-19T13:10:11;35.60;74.20
15143;DHT22;7672;50.834;6.286;2022-08-19T13:12:43;35.60;74.10
15143;DHT22;7672;50.834;6.286;2022-08-19T13:15:11;35.50;74.60
15143;DHT22;7672;50.834;6.286;2022-08-19T13:17:41;35.50;74.80
15143;DHT22;7672;50.834;6.286;2022-08-19T13:20:10;35.40;75.00
15143;DHT22;7672;50.834;6.286;2022-08-19T13:22:37;35.40;75.40
15143;DHT22;7672;50.834;6.286;2022-08-19T13:25:06;35.40;76.30
15143;DHT22;7672;50.834;6.286;2022-08-19T13:27:34;35.30;76.10
15143;DHT22;7672;50.834;6.286;2022-08-19T13:30:03;35.10;77.10
15143;DHT22;7672;50.834;6.286;2022-08-19T13:32:51;35.20;77.00
15143;DHT22;7672;50.834;6.286;2022-08-19T13:35:38;35.20;77.10
15143;DHT22;7672;50.834;6.286;2022-08-19T13:38:07;35.10;77.20
15143;DHT22;7672;50.834;6.286;2022-08-19T13:40:38;34.90;76.70
15143;DHT22;7672;50.834;6.286;2022-08-19T13:43:07;34.80;76.90
15143;DHT22;7672;50.834;6.286;2022-08-19T13:45:52;34.60;77.50
15143;DHT22;7672;50.834;6.286;2022-08-19T13:48:23;34.40;78.00
15143;DHT22;7672;50.834;6.286;2022-08-19T13:50:53;34.20;77.90
15143;DHT22;7672;50.834;6.286;2022-08-19T13:53:20;34.00;78.90
15143;DHT22;7672;50.834;6.286;2022-08-19T13:55:47;33.80;79.40
15143;DHT22;7672;50.834;6.286;2022-08-19T13:58:16;33.70;80.00
15143;DHT22;7672;50.834;6.286;2022-08-19T14:00:44;33.60;80.20
15143;DHT22;7672;50.834;6.286;2022-08-19T14:03:12;33.40;80.60
15143;DHT22;7672;50.834;6.286;2022-08-19T14:05:40;33.20;80.70
15143;DHT22;7672;50.834;6.286;2022-08-19T14:08:09;33.30;80.80
15143;DHT22;7672;50.834;6.286;2022-08-19T14:10:36;33.30;80.80
15143;DHT22;7672;50.834;6.286;2022-08-19T14:13:04;33.20;81.00
15143;DHT22;7672;50.834;6.286;2022-08-19T14:15:34;33.10;81.50
15143;DHT22;7672;50.834;6.286;2022-08-19T14:18:01;33.00;82.30
15143;DHT22;7672;50.834;6.286;2022-08-19T14:20:28;32.90;81.90
15143;DHT22;7672;50.834;6.286;2022-08-19T14:22:55;32.90;83.00
15143;DHT22;7672;50.834;6.286;2022-08-19T14:25:25;32.80;82.80
15143;DHT22;7672;50.834;6.286;2022-08-19T14:27:55;32.70;83.10
15143;DHT22;7672;50.834;6.286;2022-08-19T14:30:29;32.60;83.90
15143;DHT22;7672;50.834;6.286;2022-08-19T14:33:02;32.50;84.50
15143;DHT22;7672;50.834;6.286;2022-08-19T14:35:30;32.40;85.00
15143;DHT22;7672;50.834;6.286;2022-08-19T14:38:05;32.30;85.60
15143;DHT22;7672;50.834;6.286;2022-08-19T14:40:40;32.20;86.20
15143;DHT22;7672;50.834;6.286;2022-08-19T14:43:08;32.20;86.20
15143;DHT22;7672;50.834;6.286;2022-08-19T14:45:37;32.20;86.70
15143;DHT22;7672;50.834;6.286;2022-08-19T14:48:07;32.20;86.90
15143;DHT22;7672;50.834;6.286;2022-08-19T14:50:45;32.20;87.30
15143;DHT22;7672;50.834;6.286;2022-08-19T14:53:12;32.20;89.00
15143;DHT22;7672;50.834;6.286;2022-08-19T14:55:43;32.20;88.40
15143;DHT22;7672;50.834;6.286;2022-08-19T14:58:11;32.20;89.40
15143;DHT22;7672;50.834;6.286;2022-08-19T15:00:57;32.20;88.20
15143;DHT22;7672;50.834;6.286;2022-08-19T15:03:26;32.20;88.80
15143;DHT22;7672;50.834;6.286;2022-08-19T15:05:53;32.10;88.10
15143;DHT22;7672;50.834;6.286;2022-08-19T15:08:24;32.10;89.90
15143;DHT22;7672;50.834;6.286;2022-08-19T15:10:52;32.10;89.90
15143;DHT22;7672;50.834;6.286;2022-08-19T15:13:20;32.00;90.00
15143;DHT22;7672;50.834;6.286;2022-08-19T15:15:48;32.00;90.20
15143;DHT22;7672;50.834;6.286;2022-08-19T15:18:17;31.90;90.30
15143;DHT22;7672;50.834;6.286;2022-08-19T15:20:48;31.80;90.50
15143;DHT22;7672;50.834;6.286;2022-08-19T15:23:16;31.80;91.00
15143;DHT22;7672;50.834;6.286;2022-08-19T15:25:45;31.80;90.80
15143;DHT22;7672;50.834;6.286;2022-08-19T15:28:12;31.80;90.80
15143;DHT22;7672;50.834;6.286;2022-08-19T15:30:42;31.70;91.20
15143;DHT22;7672;50.834;6.286;2022-08-19T15:33:10;31.70;91.50
15143;DHT22;7672;50.834;6.286;2022-08-19T15:35:43;31.70;91.20
15143;DHT22;7672;50.834;6.286;2022-08-19T15:38:10;31.60;92.00
15143;DHT22;7672;50.834;6.286;2022-08-19T15:40:40;31.50;91.30
15143;DHT22;7672;50.834;6.286;2022-08-19T15:43:08;31.50;91.70
15143;DHT22;7672;50.834;6.286;2022-08-19T15:45:35;31.40;91.90
15143;DHT22;7672;50.834;6.286;2022-08-19T15:48:06;31.30;92.20
15143;DHT22;7672;50.834;6.286;2022-08-19T15:50:34;31.50;92.30
15143;DHT22;7672;50.834;6.286;2022-08-19T15:53:05;31.20;92.40
15143;DHT22;7672;50.834;6.286;2022-08-19T15:55:41;30.90;92.50
15143;DHT22;7672;50.834;6.286;2022-08-19T15:58:11;31.00;92.70
15143;DHT22;7672;50.834;6.286;2022-08-19T16:01:00;30.90;92.90
15143;DHT22;7672;50.834;6.286;2022-08-19T16:03:50;30.90;93.10
15143;DHT22;7672;50.834;6.286;2022-08-19T16:06:50;30.80;93.40
15143;DHT22;7672;50.834;6.286;2022-08-19T16:09:21;30.70;93.90
15143;DHT22;7672;50.834;6.286;2022-08-19T16:11:58;30.70;93.90
15143;DHT22;7672;50.834;6.286;2022-08-19T16:14:29;30.60;94.00
15143;DHT22;7672;50.834;6.286;2022-08-19T16:17:00;30.60;94.20
15143;DHT22;7672;50.834;6.286;2022-08-19T16:19:28;30.50;94.10
15143;DHT22;7672;50.834;6.286;2022-08-19T16:22:01;30.50;94.30
15143;DHT22;7672;50.834;6.286;2022-08-19T16:24:53;30.50;94.30
15143;DHT22;7672;50.834;6.286;2022-08-19T16:27:20;30.40;94.00
15143;DHT22;7672;50.834;6.286;2022-08-19T16:29:48;30.40;94.20